createdAt,value
2022-10-17T00:01:22.910Z,6.70
2022-10-17T00:03:54.855Z,6.95
2022-10-17T00:06:26.808Z,5.80
2022-10-17T00:08:58.738Z,5.57
2022-10-17T00:11:30.747Z,6.32
2022-10-17T00:14:04.278Z,5.28
2022-10-17T00:16:37.465Z,5.43
2022-10-17T00:19:09.386Z,4.68
2022-10-17T00:21:41.330Z,5.28
2022-10-17T00:24:13.220Z,4.13
2022-10-17T00:26:45.236Z,3.75
2022-10-17T00:29:18.540Z,4.32
2022-10-17T00:31:55.427Z,3.83
2022-10-17T00:34:30.952Z,3.88
2022-10-17T00:37:02.927Z,3.80
2022-10-17T00:39:34.884Z,3.55
2022-10-17T00:42:06.875Z,3.30
2022-10-17T00:45:19.127Z,3.08
2022-10-17T00:47:55.817Z,3.00
2022-10-17T00:50:28.586Z,2.95
2022-10-17T00:53:07.818Z,2.67
2022-10-17T00:55:48.814Z,2.90
2022-10-17T00:58:21.500Z,2.95
2022-10-17T01:00:54.802Z,3.47
2022-10-17T01:03:26.740Z,2.97
2022-10-17T01:05:58.899Z,2.35
2022-10-17T01:08:31.171Z,3.47
2022-10-17T01:11:12.164Z,2.85
2022-10-17T01:13:50.279Z,2.22
2022-10-17T01:16:36.268Z,2.90
2022-10-17T01:19:35.753Z,2.22
2022-10-17T01:22:12.186Z,2.37
2022-10-17T01:25:15.523Z,2.47
2022-10-17T01:28:12.569Z,2.63
2022-10-17T01:31:07.789Z,2.20
2022-10-17T01:33:48.130Z,2.10
2022-10-17T01:36:32.694Z,3.28
2022-10-17T01:39:16.039Z,2.35
2022-10-17T01:41:54.300Z,2.95
2022-10-17T01:44:33.033Z,2.55
2022-10-17T01:47:10.844Z,2.47
2022-10-17T01:49:45.149Z,2.30
2022-10-17T01:52:20.922Z,2.58
2022-10-17T01:54:56.907Z,2.17
2022-10-17T01:57:34.203Z,2.10
2022-10-17T02:00:11.326Z,3.33
2022-10-17T02:02:48.827Z,2.73
2022-10-17T02:05:26.836Z,2.53
2022-10-17T02:07:58.952Z,2.70
2022-10-17T02:10:36.820Z,2.83
2022-10-17T02:13:19.152Z,2.90
2022-10-17T02:16:13.102Z,2.83
2022-10-17T02:19:02.507Z,2.88
2022-10-17T02:24:21.145Z,2.55
2022-10-17T02:26:58.691Z,2.25
2022-10-17T02:29:36.572Z,2.35
2022-10-17T02:32:14.035Z,2.80
2022-10-17T02:34:51.027Z,2.10
2022-10-17T02:37:27.203Z,3.10
2022-10-17T02:40:00.793Z,2.65
2022-10-17T02:42:34.097Z,2.92
2022-10-17T02:45:10.138Z,2.58
2022-10-17T02:47:51.286Z,2.28
2022-10-17T02:50:31.152Z,2.30
2022-10-17T02:53:09.782Z,2.75
2022-10-17T02:55:48.525Z,2.78
2022-10-17T02:58:24.198Z,2.10
2022-10-17T03:00:56.280Z,3.25
2022-10-17T03:03:30.276Z,2.13
2022-10-17T03:06:07.572Z,2.38
2022-10-17T03:08:39.503Z,1.85
2022-10-17T03:11:11.532Z,2.05
2022-10-17T03:13:44.333Z,2.22
2022-10-17T03:16:16.249Z,2.72
2022-10-17T03:18:50.092Z,2.30
2022-10-17T03:21:24.164Z,2.45
2022-10-17T03:23:57.071Z,1.90
2022-10-17T03:26:29.686Z,2.42
2022-10-17T03:29:03.109Z,2.67
2022-10-17T03:31:36.377Z,1.77
2022-10-17T03:34:10.424Z,2.40
2022-10-17T03:36:43.816Z,2.92
2022-10-17T03:39:16.081Z,3.33
2022-10-17T03:41:48.344Z,2.67
2022-10-17T03:44:20.365Z,2.88
2022-10-17T03:46:53.205Z,2.60
2022-10-17T03:49:25.722Z,2.25
2022-10-17T03:51:59.050Z,2.90
2022-10-17T03:54:32.454Z,2.78
2022-10-17T03:57:04.771Z,2.45
2022-10-17T03:59:36.760Z,2.80
2022-10-17T04:02:14.489Z,3.00
2022-10-17T04:04:46.582Z,2.67
2022-10-17T04:07:20.005Z,3.05
2022-10-17T04:09:53.584Z,3.40
2022-10-17T04:12:27.679Z,2.67
2022-10-17T04:15:00.025Z,2.90
2022-10-17T04:17:37.264Z,2.60
2022-10-17T04:20:11.309Z,2.70
2022-10-17T04:22:44.711Z,1.92
2022-10-17T04:25:17.754Z,3.25
2022-10-17T04:27:51.685Z,3.88
2022-10-17T04:30:24.707Z,2.60
2022-10-17T04:32:56.656Z,2.75
2022-10-17T04:35:28.788Z,2.50
2022-10-17T04:38:08.569Z,2.50
2022-10-17T04:40:40.601Z,2.72
2022-10-17T04:43:12.561Z,2.60
2022-10-17T04:45:44.688Z,2.38
2022-10-17T04:48:16.632Z,3.08
2022-10-17T04:50:56.223Z,3.33
2022-10-17T04:53:40.557Z,3.38
2022-10-17T04:56:15.154Z,2.75
2022-10-17T04:58:47.909Z,2.83
2022-10-17T05:01:22.092Z,2.47
2022-10-17T05:03:57.518Z,2.83
2022-10-17T05:06:29.526Z,2.88
2022-10-17T05:09:26.014Z,2.97
2022-10-17T05:11:58.405Z,3.22
2022-10-17T05:14:32.388Z,3.08
2022-10-17T05:17:05.380Z,2.55
2022-10-17T05:19:37.693Z,3.25
2022-10-17T05:22:10.716Z,3.95
2022-10-17T05:24:46.516Z,3.03
2022-10-17T05:27:18.957Z,2.83
2022-10-17T05:29:51.155Z,3.53
2022-10-17T05:32:29.117Z,3.25
2022-10-17T05:35:01.412Z,2.88
2022-10-17T05:37:33.462Z,2.65
2022-10-17T05:40:09.888Z,2.60
2022-10-17T05:42:46.667Z,3.13
2022-10-17T05:45:18.870Z,3.67
2022-10-17T05:47:52.111Z,3.25
2022-10-17T05:50:25.267Z,2.83
2022-10-17T05:53:33.379Z,3.10
2022-10-17T05:56:12.795Z,3.30
2022-10-17T05:58:50.185Z,4.22
2022-10-17T06:01:52.362Z,2.65
2022-10-17T06:04:27.797Z,3.80
2022-10-17T06:07:00.340Z,3.25
2022-10-17T06:09:33.886Z,3.17
2022-10-17T06:12:08.714Z,2.92
2022-10-17T06:14:40.920Z,2.90
2022-10-17T06:17:15.936Z,2.58
2022-10-17T06:19:49.229Z,2.70
2022-10-17T06:22:21.290Z,2.90
2022-10-17T06:24:53.810Z,2.53
2022-10-17T06:27:27.119Z,3.45
2022-10-17T06:29:59.133Z,3.38
2022-10-17T06:32:33.789Z,2.10
2022-10-17T06:35:06.720Z,2.85
2022-10-17T06:37:39.260Z,2.78
2022-10-17T06:40:15.279Z,3.35
2022-10-17T06:42:48.783Z,2.67
2022-10-17T06:45:40.905Z,2.40
2022-10-17T06:48:48.273Z,3.70
2022-10-17T06:51:46.578Z,3.15
2022-10-17T06:54:20.994Z,2.50
2022-10-17T06:59:57.789Z,2.95
2022-10-17T07:02:36.861Z,3.03
2022-10-17T07:05:09.170Z,2.92
2022-10-17T07:07:44.166Z,3.53
2022-10-17T07:10:17.664Z,3.22
2022-10-17T07:12:49.746Z,3.40
2022-10-17T07:15:23.198Z,3.75
2022-10-17T07:17:55.307Z,3.28
2022-10-17T07:20:27.779Z,3.35
2022-10-17T07:23:00.024Z,2.47
2022-10-17T07:25:34.210Z,2.90
2022-10-17T07:28:12.062Z,3.00
2022-10-17T07:30:50.615Z,2.72
2022-10-17T07:33:25.619Z,3.47
2022-10-17T07:35:58.820Z,4.80
2022-10-17T07:38:31.466Z,3.13
2022-10-17T07:41:05.401Z,3.38
2022-10-17T07:43:38.855Z,4.00
2022-10-17T07:46:14.210Z,3.15
2022-10-17T07:48:46.443Z,3.30
2022-10-17T07:51:22.011Z,3.40
2022-10-17T07:53:53.967Z,2.63
2022-10-17T07:56:25.923Z,3.20
2022-10-17T08:01:37.024Z,3.25
2022-10-17T08:04:08.979Z,2.88
2022-10-17T08:06:40.941Z,3.40
2022-10-17T08:09:12.920Z,3.38
2022-10-17T08:11:45.293Z,2.75
2022-10-17T08:14:17.360Z,3.72
2022-10-17T08:16:50.766Z,3.35
2022-10-17T08:19:22.739Z,2.60
2022-10-17T08:21:54.658Z,3.13
2022-10-17T08:24:26.655Z,3.75
2022-10-17T08:26:58.663Z,3.53
2022-10-17T08:29:32.866Z,3.90
2022-10-17T08:32:09.603Z,3.05
2022-10-17T08:34:41.754Z,2.95
2022-10-17T08:37:14.020Z,2.97
2022-10-17T08:39:46.008Z,3.45
2022-10-17T08:42:35.010Z,3.65
2022-10-17T08:45:18.669Z,3.60
2022-10-17T08:47:54.716Z,3.15
2022-10-17T08:50:32.603Z,3.67
2022-10-17T08:53:11.025Z,2.92
2022-10-17T08:55:46.670Z,3.72
2022-10-17T08:58:22.292Z,3.45
2022-10-17T09:01:03.756Z,3.25
2022-10-17T09:03:48.554Z,3.05
2022-10-17T09:06:29.898Z,3.00
2022-10-17T09:09:13.845Z,3.08
2022-10-17T09:11:57.591Z,3.17
2022-10-17T09:14:53.952Z,3.22
2022-10-17T09:17:36.645Z,2.85
2022-10-17T09:20:15.154Z,3.22
2022-10-17T09:22:52.336Z,2.92
2022-10-17T09:25:25.879Z,3.65
2022-10-17T09:28:10.969Z,2.92
2022-10-17T09:30:45.844Z,2.58
2022-10-17T09:33:42.360Z,2.55
2022-10-17T09:36:18.054Z,2.92
2022-10-17T09:38:53.718Z,2.83
2022-10-17T09:41:49.746Z,3.60
2022-10-17T09:44:23.695Z,2.05
2022-10-17T09:47:08.510Z,2.95
2022-10-17T09:49:41.953Z,2.88
2022-10-17T09:52:18.473Z,2.25
2022-10-17T09:54:52.774Z,3.40
2022-10-17T09:57:25.646Z,2.75
2022-10-17T09:59:59.964Z,5.18
2022-10-17T10:02:36.394Z,5.88
2022-10-17T10:05:16.576Z,2.20
2022-10-17T10:08:03.610Z,2.40
2022-10-17T10:10:35.550Z,2.90
2022-10-17T10:13:17.891Z,3.28
2022-10-17T10:15:50.861Z,3.47
2022-10-17T10:18:32.962Z,2.42
2022-10-17T10:21:09.008Z,2.30
2022-10-17T10:23:43.451Z,2.50
2022-10-17T10:26:22.580Z,2.53
2022-10-17T10:29:01.772Z,1.75
2022-10-17T10:31:38.688Z,2.42
2022-10-17T10:34:19.547Z,2.83
2022-10-17T10:36:57.561Z,2.15
2022-10-17T10:39:46.000Z,4.13
2022-10-17T10:42:22.382Z,3.70
2022-10-17T10:44:57.908Z,11.43
2022-10-17T10:47:31.835Z,2.90
2022-10-17T10:50:17.601Z,6.20
2022-10-17T10:52:56.647Z,3.28
2022-10-17T10:55:35.807Z,2.40
2022-10-17T10:58:20.587Z,2.75
2022-10-17T11:00:53.751Z,2.28
2022-10-17T11:03:31.385Z,2.60
2022-10-17T11:06:12.743Z,2.63
2022-10-17T11:08:48.787Z,2.30
2022-10-17T11:11:32.431Z,1.88
2022-10-17T11:14:13.772Z,2.47
2022-10-17T11:16:51.910Z,1.95
2022-10-17T11:19:31.465Z,2.00
2022-10-17T11:22:12.795Z,2.33
2022-10-17T11:24:57.107Z,2.03
2022-10-17T11:27:31.318Z,2.33
2022-10-17T11:30:04.098Z,1.83
2022-10-17T11:32:40.249Z,2.33
2022-10-17T11:35:21.016Z,2.28
2022-10-17T11:38:00.721Z,2.30
2022-10-17T11:40:36.139Z,2.20
2022-10-17T11:43:14.817Z,2.75
2022-10-17T11:45:52.692Z,1.90
2022-10-17T11:48:28.963Z,3.70
2022-10-17T11:54:09.888Z,3.55
2022-10-17T11:56:53.755Z,7.20
2022-10-17T11:59:57.518Z,3.72
2022-10-17T12:02:39.180Z,4.85
2022-10-17T12:05:23.734Z,3.28
2022-10-17T12:08:03.441Z,2.17
2022-10-17T12:10:46.012Z,5.88
2022-10-17T12:13:49.108Z,2.70
2022-10-17T12:16:49.543Z,3.45
2022-10-17T12:22:00.686Z,2.17
2022-10-17T12:24:40.462Z,2.65
2022-10-17T12:27:47.857Z,2.70
2022-10-17T12:30:24.856Z,3.08
2022-10-17T12:33:07.159Z,2.45
2022-10-17T12:35:39.913Z,2.08
2022-10-17T12:38:24.482Z,1.83
2022-10-17T12:41:06.310Z,2.67
2022-10-17T12:46:55.586Z,1.70
2022-10-17T12:49:53.087Z,2.00
2022-10-17T12:53:01.443Z,1.92
2022-10-17T12:55:34.288Z,2.20
2022-10-17T12:58:12.799Z,2.20
2022-10-17T13:01:11.820Z,2.28
2022-10-17T13:03:47.719Z,1.70
2022-10-17T13:06:24.826Z,2.80
2022-10-17T13:09:03.853Z,1.80
2022-10-17T13:11:39.558Z,2.30
2022-10-17T13:14:15.352Z,2.67
2022-10-17T13:16:52.882Z,2.10
2022-10-17T13:19:26.536Z,1.58
2022-10-17T13:22:06.387Z,2.33
2022-10-17T13:24:40.748Z,2.17
2022-10-17T13:27:25.353Z,2.10
2022-10-17T13:29:59.475Z,1.98
2022-10-17T13:32:36.988Z,1.80
2022-10-17T13:35:11.372Z,2.70
2022-10-17T13:37:50.266Z,1.83
2022-10-17T13:43:24.181Z,2.20
2022-10-17T13:46:13.658Z,2.33
2022-10-17T13:48:53.709Z,2.40
2022-10-17T13:51:27.414Z,2.22
2022-10-17T13:54:00.891Z,2.22
2022-10-17T13:56:32.863Z,1.83
2022-10-17T13:59:22.165Z,2.08
2022-10-17T14:01:55.993Z,2.17
2022-10-17T14:04:28.192Z,2.03
2022-10-17T14:07:00.182Z,1.80
2022-10-17T14:09:34.034Z,1.80
2022-10-17T14:12:13.592Z,1.88
2022-10-17T14:15:09.382Z,2.30
2022-10-17T14:17:42.901Z,2.38
2022-10-17T14:21:01.593Z,2.40
2022-10-17T14:23:29.885Z,2.47
2022-10-17T14:26:09.419Z,2.15
2022-10-17T14:28:43.343Z,1.87
2022-10-17T14:31:25.845Z,1.55
2022-10-17T14:33:58.294Z,2.25
2022-10-17T14:36:33.322Z,1.88
2022-10-17T14:39:10.701Z,2.13
2022-10-17T14:41:47.998Z,2.58
2022-10-17T14:44:23.804Z,1.77
2022-10-17T14:46:59.558Z,2.42
2022-10-17T14:49:37.809Z,2.08
2022-10-17T14:52:15.118Z,2.13
2022-10-17T14:54:50.526Z,2.15
2022-10-17T14:57:27.824Z,2.95
2022-10-17T14:59:59.826Z,2.58
2022-10-17T15:02:32.060Z,2.67
2022-10-17T15:05:05.115Z,2.30
2022-10-17T15:07:38.390Z,2.55
2022-10-17T15:10:24.992Z,2.40
2022-10-17T15:13:16.429Z,2.88
2022-10-17T15:15:52.514Z,2.92
2022-10-17T15:18:24.765Z,3.10
2022-10-17T15:21:04.923Z,2.95
2022-10-17T15:26:15.266Z,2.17
2022-10-17T15:28:49.746Z,2.70
2022-10-17T15:31:23.561Z,1.92
2022-10-17T15:33:55.493Z,2.88
2022-10-17T15:36:29.624Z,2.42
2022-10-17T15:39:02.235Z,3.13
2022-10-17T15:41:34.170Z,4.13
2022-10-17T15:44:07.750Z,4.63
2022-10-17T15:46:41.243Z,4.18
2022-10-17T15:49:14.438Z,5.20
2022-10-17T15:51:47.779Z,6.20
2022-10-17T15:54:22.292Z,6.75
2022-10-17T15:56:55.356Z,7.03
2022-10-17T15:59:32.268Z,9.15
2022-10-17T16:02:04.264Z,8.68
2022-10-17T16:04:36.193Z,10.27
2022-10-17T16:07:08.122Z,11.13
2022-10-17T16:09:40.175Z,13.10
2022-10-17T16:12:16.129Z,13.63
2022-10-17T16:14:49.482Z,15.05
2022-10-17T16:17:21.424Z,14.32
2022-10-17T16:19:53.356Z,17.65
2022-10-17T16:22:32.061Z,16.73
2022-10-17T16:25:10.230Z,22.92
2022-10-17T16:27:42.167Z,21.75
2022-10-17T16:30:16.153Z,21.17
2022-10-17T16:32:48.482Z,22.60
2022-10-17T16:35:22.719Z,25.95
2022-10-17T16:37:54.745Z,22.33
2022-10-17T16:40:26.714Z,22.42
2022-10-17T16:42:59.860Z,27.98
2022-10-17T16:45:33.865Z,17.33
2022-10-17T16:48:06.327Z,18.20
2022-10-17T16:50:40.091Z,20.88
2022-10-17T16:53:12.056Z,17.10
2022-10-17T16:55:43.955Z,16.00
2022-10-17T16:58:15.865Z,17.10
2022-10-17T17:00:49.263Z,12.68
2022-10-17T17:03:21.222Z,16.65
2022-10-17T17:05:53.163Z,15.43
2022-10-17T17:08:25.232Z,10.57
2022-10-17T17:10:57.654Z,14.02
2022-10-17T17:13:30.106Z,11.98
2022-10-17T17:16:09.589Z,12.20
2022-10-17T17:18:42.108Z,10.43
2022-10-17T17:21:14.136Z,14.80
2022-10-17T17:23:46.060Z,26.73
2022-10-17T17:26:22.629Z,31.13
2022-10-17T17:28:54.924Z,23.80
2022-10-17T17:31:33.165Z,23.75
2022-10-17T17:34:05.382Z,21.25
2022-10-17T17:36:38.031Z,24.52
2022-10-17T17:39:13.077Z,18.90
2022-10-17T17:41:45.929Z,11.15
2022-10-17T17:44:17.864Z,16.70
2022-10-17T17:46:51.241Z,12.68
2022-10-17T17:49:23.162Z,15.63
2022-10-17T17:51:55.162Z,14.77
2022-10-17T17:54:27.131Z,11.80
2022-10-17T17:56:59.031Z,9.43
2022-10-17T17:59:31.296Z,12.48
2022-10-17T18:02:06.409Z,14.88
2022-10-17T18:04:38.351Z,15.85
2022-10-17T18:07:10.261Z,14.55
2022-10-17T18:09:42.228Z,9.98
2022-10-17T18:12:14.142Z,11.50
2022-10-17T18:14:46.148Z,12.60
2022-10-17T18:17:19.573Z,13.18
2022-10-17T18:19:51.695Z,12.90
2022-10-17T18:22:23.702Z,18.40
2022-10-17T18:24:55.701Z,16.77
2022-10-17T18:27:27.639Z,14.25
2022-10-17T18:29:59.574Z,16.35
2022-10-17T18:32:33.230Z,15.27
2022-10-17T18:35:05.966Z,21.20
2022-10-17T18:37:37.952Z,21.60
2022-10-17T18:40:10.716Z,25.15
2022-10-17T18:42:43.197Z,22.70
2022-10-17T18:45:15.729Z,27.33
2022-10-17T18:47:52.582Z,30.77
2022-10-17T18:50:25.085Z,17.13
2022-10-17T18:52:57.006Z,22.05
2022-10-17T18:55:28.982Z,14.70
2022-10-17T18:58:00.967Z,15.93
2022-10-17T19:00:33.119Z,16.73
2022-10-17T19:03:07.738Z,14.27
2022-10-17T19:05:40.067Z,15.57
2022-10-17T19:08:13.237Z,16.77
2022-10-17T19:10:45.222Z,16.88
2022-10-17T19:13:21.441Z,13.95
2022-10-17T19:15:53.648Z,13.60
2022-10-17T19:18:27.137Z,17.30
2022-10-17T19:21:02.129Z,12.85
2022-10-17T19:23:35.946Z,21.23
2022-10-17T19:26:09.755Z,13.63
2022-10-17T19:28:42.199Z,10.25
2022-10-17T19:31:16.995Z,7.97
2022-10-17T19:33:52.796Z,7.15
2022-10-17T19:36:30.445Z,7.85
2022-10-17T19:39:08.804Z,6.38
2022-10-17T19:41:40.880Z,6.25
2022-10-17T19:44:13.550Z,6.25
2022-10-17T19:46:46.977Z,6.55
2022-10-17T19:49:21.008Z,6.05
2022-10-17T19:51:52.929Z,5.15
2022-10-17T19:54:24.994Z,6.43
2022-10-17T19:56:57.132Z,6.18
2022-10-17T19:59:29.487Z,5.90
2022-10-17T20:02:01.457Z,5.60
2022-10-17T20:04:35.228Z,6.00
2022-10-17T20:07:07.363Z,5.18
2022-10-17T20:09:39.306Z,4.60
2022-10-17T20:12:11.246Z,5.55
2022-10-17T20:14:46.557Z,4.55
2022-10-17T20:17:18.560Z,5.00
2022-10-17T20:19:51.960Z,4.97
2022-10-17T20:22:23.943Z,4.43
2022-10-17T20:24:56.023Z,4.35
2022-10-17T20:27:27.996Z,4.75
2022-10-17T20:30:01.959Z,4.82
2022-10-17T20:32:39.562Z,4.13
2022-10-17T20:35:13.117Z,5.03
2022-10-17T20:37:45.093Z,3.83
2022-10-17T20:40:34.222Z,4.80
2022-10-17T20:43:08.249Z,3.17
2022-10-17T20:45:51.426Z,4.07
2022-10-17T20:48:24.632Z,3.40
2022-10-17T20:50:58.127Z,3.47
2022-10-17T20:53:36.905Z,4.28
2022-10-17T20:56:19.867Z,4.40
2022-10-17T20:58:53.518Z,4.00
2022-10-17T21:01:26.443Z,4.10
2022-10-17T21:04:06.092Z,3.55
2022-10-17T21:06:51.861Z,4.57
2022-10-17T21:09:24.479Z,3.45
2022-10-17T21:11:57.063Z,4.25
2022-10-17T21:14:29.153Z,3.90
2022-10-17T21:17:04.943Z,3.97
2022-10-17T21:19:37.288Z,4.35
2022-10-17T21:22:10.686Z,4.22
2022-10-17T21:24:42.715Z,3.85
2022-10-17T21:27:16.278Z,3.90
2022-10-17T21:29:48.281Z,4.40
2022-10-17T21:32:33.353Z,4.10
2022-10-17T21:35:12.315Z,4.43
2022-10-17T21:37:45.613Z,4.28
2022-10-17T21:40:17.669Z,4.55
2022-10-17T21:42:49.572Z,6.63
2022-10-17T21:45:25.928Z,6.25
2022-10-17T21:48:13.648Z,6.22
2022-10-17T21:50:45.682Z,5.55
2022-10-17T21:53:19.011Z,5.63
2022-10-17T21:55:50.998Z,4.70
2022-10-17T21:58:22.964Z,4.15
2022-10-17T22:01:03.231Z,3.55
2022-10-17T22:03:35.967Z,4.05
2022-10-17T22:06:34.583Z,4.30
2022-10-17T22:09:03.271Z,4.07
2022-10-17T22:11:35.924Z,3.50
2022-10-17T22:14:12.074Z,4.00
2022-10-17T22:16:47.893Z,3.92
2022-10-17T22:19:22.817Z,4.25
2022-10-17T22:21:55.508Z,5.40
2022-10-17T22:24:28.895Z,3.38
2022-10-17T22:27:00.905Z,3.47
2022-10-17T22:29:33.280Z,3.25
2022-10-17T22:32:05.424Z,3.60
2022-10-17T22:34:37.429Z,3.70
2022-10-17T22:37:09.338Z,3.53
2022-10-17T22:39:42.645Z,3.15
2022-10-17T22:42:14.658Z,3.28
2022-10-17T22:44:46.632Z,2.88
2022-10-17T22:47:18.591Z,3.88
2022-10-17T22:49:50.509Z,3.40
2022-10-17T22:52:22.487Z,3.90
2022-10-17T22:54:55.829Z,3.97
2022-10-17T22:57:27.776Z,3.90
2022-10-17T22:59:59.729Z,4.55
2022-10-17T23:02:32.789Z,3.60
2022-10-17T23:05:06.743Z,3.58
2022-10-17T23:07:38.720Z,3.95
2022-10-17T23:10:12.049Z,4.60
2022-10-17T23:12:43.961Z,2.72
2022-10-17T23:15:16.095Z,3.75
2022-10-17T23:17:48.079Z,3.17
2022-10-17T23:20:20.132Z,3.58
2022-10-17T23:22:52.096Z,3.22
2022-10-17T23:25:25.972Z,3.10
2022-10-17T23:27:57.946Z,3.50
2022-10-17T23:30:31.899Z,3.50
2022-10-17T23:33:04.046Z,4.22
2022-10-17T23:35:36.033Z,4.72
2022-10-17T23:38:23.028Z,3.33
2022-10-17T23:40:56.311Z,4.72
2022-10-17T23:43:28.366Z,5.88
2022-10-17T23:46:00.820Z,5.65
2022-10-17T23:48:33.035Z,4.53
2022-10-17T23:51:05.168Z,5.75
2022-10-17T23:53:37.834Z,7.25
2022-10-17T23:56:11.575Z,6.22
2022-10-17T23:58:43.542Z,6.43
